Warsaw, IN

1:56 AM EDT on March 30, 2015 (GMT -0400)
Warsaw Municipal | | Change Station
CLOSE
Current Station
Airport
Location: Warsaw,
Elevation: 850 ft
Nearby Weather Stations

Elev 850 ft 41.27 °N, 85.84 °W | Updated 21 minutes ago

Overcast
Overcast
41 °F
Feels Like 33 °F
N
15
Wind Variable Wind from WNW
Gusts 22 mph

Today
High -- | Low -- °F
--% Chance of Precip.
Yesterday
High -- | Low -- °F
Precip. -- in
7:30 AM 8:06 PM
Waxing Gibbous, 77% visible
Pressure 29.91 in
Visibility 10.0 miles
Clouds Overcast 5500 ft
Windchill 33 °F
Dew Point 32 °F
Humidity 70%
Rainfall 0.00 in
Snow Depth Not available.
UV 0 out of 12
Pollen 4.30 out of 12
Air Quality Not available.
Flu Activity Not available.
METAR KASW 300535Z AUTO 30013G19KT 10SM OVC055 05/00 A2991 RMK AO2

More Conditions Fewer Conditions

Pressure 29.91 in
Visibility 10.0 miles
Clouds Overcast 5500 ft
Windchill 33 °F
Dew Point 32 °F
Humidity 70%
Rainfall 0.00 in
Snow Depth Not available.
UV 0 out of 12
Pollen 4.30 out of 12
Air Quality Not available.
Flu Activity Not available.
METAR KASW 300535Z AUTO 30013G19KT 10SM OVC055 05/00 A2991 RMK AO2

More Conditions Fewer Conditions

10-Day Weather Forecast

Almanac

Astronomy

Mar. 30, 2015 Rise Set
Actual Time
Civil Twilight
Nautical Twilight
Astronomical Twilight
Moon
Length of Visible Light
Length of Day
Tomorrow will be .
, % of the Moon is Illuminated

Today's Extremes

State Highs State Lows

Community

WunderPhotos

Upload Photos

1,809,437 photos uploaded!

WunderBlogs® & News

Nearby

Air Quality

  Air Quality AQ Index Pollutant
Not available.

Snow Depth

Station Depth Elevation

Earthquake Activity

City Distance Mag. Time & Date
Minimum magnitude displayed is 2.5.

Coastal Water Temperatures

Place Temperature

Stations

Nearby Weather Stations

Station Location Temp. Windchill Dew Point Humidity Wind Precip. Elev Updated Type